Time;durP1;ratioP1;P1;durP2;ratioP2;P2;SDS_P1;SDS_P2;PMS_P1;PMS_P2;Temp;Humidity;BMP_temperature;BMP_pressure;BME280_temperature;BME280_humidity;BME280_pressure;Samples;Min_cycle;Max_cycle;Signal;HPM_P1;HPM_P2
2022/04/22 00:01:01;;;;;;;16.90;7.60;;;;;;;12.55;62.33;100933.75;5056052;28;20334;-81
2022/04/22 00:03:27;;;;;;;13.32;7.03;;;;;;;12.45;62.63;100940.31;5056431;28;20025;-81
2022/04/22 00:05:52;;;;;;;14.32;6.97;;;;;;;12.44;62.47;100932.41;5058864;28;20032;-82
2022/04/22 00:08:18;;;;;;;19.42;7.35;;;;;;;12.40;62.77;100934.66;5056623;28;20060;-79
2022/04/22 00:11:44;;;;;;;12.05;6.72;;;;;;;12.34;62.98;100931.88;5059675;28;20036;-81
2022/04/22 00:13:38;;;;;;;13.52;7.30;;;;;;;12.29;63.18;100932.44;5044744;28;20080;-80
2022/04/22 00:16:04;;;;;;;14.63;6.93;;;;;;;12.20;63.30;100937.13;5058162;28;20401;-81
2022/04/22 00:18:33;;;;;;;10.23;6.43;;;;;;;12.18;63.33;100935.66;5062441;28;20036;-78
2022/04/22 00:20:59;;;;;;;9.77;6.72;;;;;;;12.12;63.37;100941.81;5064321;28;20081;-81
2022/04/22 00:23:26;;;;;;;12.00;6.90;;;;;;;12.07;63.62;100940.50;5068168;28;20108;-82
2022/04/22 00:25:51;;;;;;;10.17;6.80;;;;;;;12.00;63.93;100942.28;5060133;28;20377;-82
2022/04/22 00:28:17;;;;;;;11.95;6.65;;;;;;;11.93;64.06;100937.84;5060276;28;20291;-80
2022/04/22 00:30:43;;;;;;;13.27;6.68;;;;;;;11.86;64.09;100940.47;5057335;28;20041;-79
2022/04/22 00:33:08;;;;;;;15.90;6.95;;;;;;;11.84;64.12;100937.06;5055886;28;20490;-79
2022/04/22 00:35:33;;;;;;;15.30;7.15;;;;;;;11.77;64.25;100936.16;5054324;28;20136;-80
2022/04/22 00:37:59;;;;;;;13.15;6.43;;;;;;;11.79;64.46;100944.88;5053584;28;20443;-81
2022/04/22 00:40:25;;;;;;;14.25;6.50;;;;;;;11.75;64.49;100943.59;5052765;28;20082;-82
2022/04/22 00:42:50;;;;;;;13.13;6.88;;;;;;;11.75;64.44;100946.31;5053292;28;20033;-80
2022/04/22 00:45:18;;;;;;;8.80;5.95;;;;;;;11.72;64.24;100939.44;5053688;28;20182;-80
2022/04/22 00:47:43;;;;;;;11.20;6.27;;;;;;;11.68;64.46;100923.81;5052541;28;20542;-80
2022/04/22 00:50:09;;;;;;;9.50;5.97;;;;;;;11.63;64.47;100938.66;5054253;28;20104;-80
2022/04/22 00:52:34;;;;;;;12.90;6.28;;;;;;;11.56;64.88;100935.06;5052726;28;20526;-79
2022/04/22 00:54:59;;;;;;;11.57;5.50;;;;;;;11.56;64.47;100923.44;5051806;28;20500;-80
2022/04/22 00:57:25;;;;;;;9.40;5.55;;;;;;;11.54;64.43;100931.72;5052124;28;20051;-81
2022/04/22 00:59:51;;;;;;;13.50;5.40;;;;;;;11.53;64.68;100932.75;5053958;28;20032;-81
2022/04/22 01:02:16;;;;;;;9.30;6.28;;;;;;;11.52;64.60;100928.34;5052850;28;20109;-80
2022/04/22 01:10:10;;;;;;;8.18;5.68;;;;;;;11.43;64.87;100918.72;5053710;28;20070;-82
2022/04/22 01:12:35;;;;;;;13.32;5.57;;;;;;;11.43;64.74;100918.72;5050182;28;20161;-81
2022/04/22 01:15:01;;;;;;;8.88;5.72;;;;;;;11.38;65.17;100913.88;5052150;28;20035;-81
2022/04/22 01:17:26;;;;;;;9.32;5.70;;;;;;;11.34;65.30;100914.41;5051220;28;20021;-81
2022/04/22 01:19:53;;;;;;;11.77;5.93;;;;;;;11.30;65.56;100918.53;5051704;28;20158;-82
2022/04/22 01:22:19;;;;;;;13.65;6.28;;;;;;;11.30;65.63;100911.28;5052097;28;20125;-79
2022/04/22 01:24:45;;;;;;;7.07;5.50;;;;;;;11.21;65.54;100907.81;5052257;28;20040;-80
2022/04/22 01:27:10;;;;;;;10.60;6.45;;;;;;;11.15;65.67;100911.25;5049448;28;20099;-81
2022/04/22 01:29:36;;;;;;;10.95;5.85;;;;;;;11.19;65.86;100904.47;5052078;28;20039;-79
2022/04/22 01:32:01;;;;;;;11.57;5.90;;;;;;;11.17;65.94;100901.13;5050232;28;20029;-81
2022/04/22 01:34:27;;;;;;;10.43;6.10;;;;;;;11.15;66.26;100907.72;5050974;28;20049;-83
2022/04/22 01:36:53;;;;;;;12.35;6.30;;;;;;;11.11;66.29;100915.34;5051819;28;20091;-82
2022/04/22 01:39:18;;;;;;;11.82;6.30;;;;;;;11.09;66.24;100903.06;5052818;28;20484;-79
2022/04/22 01:41:44;;;;;;;10.95;6.65;;;;;;;11.08;66.40;100917.53;5044594;28;20504;-79
2022/04/22 01:44:09;;;;;;;12.68;6.50;;;;;;;11.05;66.56;100905.28;5055736;28;20063;-81
2022/04/22 01:46:35;;;;;;;13.18;7.05;;;;;;;11.02;66.66;100902.97;5051225;28;20037;-82
2022/04/22 01:49:01;;;;;;;12.60;6.45;;;;;;;11.02;66.81;100908.34;5049717;28;20033;-81
2022/04/22 01:51:27;;;;;;;10.02;6.85;;;;;;;10.97;66.89;100910.75;5051024;28;20048;-82
2022/04/22 01:53:53;;;;;;;13.35;6.95;;;;;;;10.86;67.15;100905.81;5051214;28;20508;-82
2022/04/22 01:56:18;;;;;;;12.05;6.93;;;;;;;10.81;67.48;100900.97;5051289;28;20041;-82
2022/04/22 01:58:44;;;;;;;11.38;6.70;;;;;;;10.78;67.42;100904.03;5051394;28;20502;-83
2022/04/22 02:01:09;;;;;;;12.73;7.05;;;;;;;10.76;67.61;100898.81;5051542;28;20448;-83
2022/04/22 02:03:34;;;;;;;14.52;6.78;;;;;;;10.75;67.86;100899.84;5051298;28;20068;-83
2022/04/22 02:06:01;;;;;;;13.45;6.55;;;;;;;10.73;67.85;100888.41;5051622;28;20025;-82
2022/04/22 02:08:26;;;;;;;12.48;6.30;;;;;;;10.74;67.78;100897.31;5052030;28;20167;-83
2022/04/22 02:10:51;;;;;;;11.13;6.13;;;;;;;10.73;68.05;100895.66;5051126;28;20056;-84
2022/04/22 02:13:17;;;;;;;16.20;6.22;;;;;;;10.70;67.99;100882.56;5051000;28;20333;-84
2022/04/22 02:15:42;;;;;;;16.80;7.05;;;;;;;10.65;68.12;100877.72;5050812;28;20041;-83
2022/04/22 02:18:07;;;;;;;13.73;7.20;;;;;;;10.64;68.33;100883.31;5038896;28;20067;-84
2022/04/22 02:20:33;;;;;;;15.15;6.78;;;;;;;10.62;68.58;100878.09;5050955;28;20077;-83
2022/04/22 02:22:58;;;;;;;15.05;7.18;;;;;;;10.60;68.35;100871.22;5066010;28;20492;-84
2022/04/22 02:25:23;;;;;;;10.23;7.00;;;;;;;10.60;68.53;100882.81;5052101;28;20052;-84
2022/04/22 02:30:32;;;;;;;10.85;6.50;;;;;;;10.56;68.57;100865.38;5053942;28;20040;-81
2022/04/22 02:32:58;;;;;;;12.90;6.82;;;;;;;10.54;68.79;100867.41;5052951;28;20404;-82
2022/04/22 02:35:23;;;;;;;14.60;7.03;;;;;;;10.50;68.89;100874.16;5052462;28;20488;-81
2022/04/22 02:37:49;;;;;;;12.05;7.07;;;;;;;10.52;68.69;100866.72;5052075;28;20055;-82
2022/04/22 02:45:43;;;;;;;15.30;7.20;;;;;;;10.47;69.26;100877.19;5055522;28;20056;-78
2022/04/22 02:48:08;;;;;;;12.68;6.95;;;;;;;10.45;69.30;100866.63;5050185;28;20464;-82
2022/04/22 02:50:33;;;;;;;15.43;7.18;;;;;;;10.43;69.41;100870.53;5050695;28;20057;-81
2022/04/22 02:52:58;;;;;;;11.82;6.82;;;;;;;10.43;69.54;100867.84;5050832;28;20025;-79
2022/04/22 02:55:24;;;;;;;13.63;6.90;;;;;;;10.40;70.17;100860.09;5054068;28;20028;-83
2022/04/22 02:57:49;;;;;;;14.60;6.70;;;;;;;10.33;70.71;100855.44;5056676;28;20091;-79
2022/04/22 03:00:15;;;;;;;11.20;6.20;;;;;;;10.29;70.89;100858.66;5056032;28;20550;-81
2022/04/22 03:02:42;;;;;;;17.13;7.68;;;;;;;10.28;71.61;100852.47;5056414;28;20040;-81
2022/04/22 03:05:09;;;;;;;20.27;6.97;;;;;;;10.26;71.81;100854.44;5053998;28;20071;-79
2022/04/22 03:07:34;;;;;;;14.95;7.00;;;;;;;10.26;72.24;100856.31;5054390;28;20500;-81
2022/04/22 03:10:00;;;;;;;9.52;6.50;;;;;;;10.22;72.48;100857.69;5054964;28;20086;-79
2022/04/22 03:12:25;;;;;;;9.40;5.82;;;;;;;10.18;72.85;100857.22;5055326;28;20084;-80
2022/04/22 03:14:51;;;;;;;13.45;6.35;;;;;;;10.18;73.25;100854.50;5054474;28;20032;-80
2022/04/22 03:17:16;;;;;;;10.93;6.70;;;;;;;10.13;74.06;100856.91;5054933;28;20036;-82
2022/04/22 03:19:42;;;;;;;11.80;6.65;;;;;;;10.15;74.28;100854.88;5054744;28;20025;-80
2022/04/22 03:22:08;;;;;;;10.60;6.38;;;;;;;10.15;74.13;100859.44;5053899;28;20098;-78
2022/04/22 03:24:33;;;;;;;11.68;6.75;;;;;;;10.14;74.91;100850.53;5058777;28;20496;-80
2022/04/22 03:26:59;;;;;;;18.17;7.47;;;;;;;10.12;75.22;100847.16;5054740;28;20334;-80
2022/04/22 03:29:24;;;;;;;12.90;6.68;;;;;;;10.08;75.44;100846.69;5055054;28;20017;-82
2022/04/22 03:31:50;;;;;;;13.60;6.22;;;;;;;10.06;75.70;100845.22;5055524;28;20094;-80
2022/04/22 03:34:15;;;;;;;11.55;6.22;;;;;;;10.03;75.94;100832.97;5056274;28;20044;-80
2022/04/22 03:36:40;;;;;;;14.60;6.57;;;;;;;9.98;76.21;100843.41;5055733;28;20025;-80
2022/04/22 03:39:06;;;;;;;13.95;6.45;;;;;;;9.97;76.59;100840.88;5055829;28;20052;-79
2022/04/22 03:41:33;;;;;;;12.60;6.10;;;;;;;9.92;76.72;100835.19;5053815;28;20032;-80
2022/04/22 03:43:59;;;;;;;12.48;5.82;;;;;;;9.95;76.91;100834.84;5054277;28;20447;-80
2022/04/22 03:46:24;;;;;;;11.90;5.85;;;;;;;9.99;76.83;100844.25;5057686;28;20102;-81
2022/04/22 03:48:50;;;;;;;12.18;5.65;;;;;;;9.92;77.24;100836.03;5054405;28;20037;-81
2022/04/22 03:51:15;;;;;;;10.73;6.20;;;;;;;9.93;77.68;100842.28;5056106;28;20115;-81
2022/04/22 03:53:41;;;;;;;10.38;6.43;;;;;;;9.96;77.58;100825.78;5054749;28;20028;-81
2022/04/22 03:58:50;;;;;;;9.70;5.80;;;;;;;9.90;78.06;100843.47;5053389;28;20067;-80
2022/04/22 04:01:15;;;;;;;12.15;6.65;;;;;;;9.92;77.95;100836.03;5053227;28;20017;-81
2022/04/22 04:03:40;;;;;;;10.00;5.45;;;;;;;9.88;78.25;100838.25;5053029;28;20537;-79
2022/04/22 04:06:07;;;;;;;12.45;6.10;;;;;;;9.87;78.36;100843.78;5056994;28;20089;-81
2022/04/22 04:08:32;;;;;;;8.27;5.90;;;;;;;9.85;78.35;100841.28;5057744;28;20025;-82
2022/04/22 04:16:22;;;;;;;12.90;6.68;;;;;;;9.77;79.21;100830.59;5049483;28;20104;-79
2022/04/22 04:18:48;;;;;;;10.60;6.95;;;;;;;9.78;79.12;100840.31;5057959;28;20044;-81
2022/04/22 04:23:57;;;;;;;11.63;6.75;;;;;;;9.75;79.09;100840.69;5054809;28;20136;-79
2022/04/22 04:26:27;;;;;;;13.15;6.95;;;;;;;9.69;79.74;100841.41;5052736;28;20032;-80
2022/04/22 04:28:53;;;;;;;12.30;7.18;;;;;;;9.71;79.47;100839.34;5056984;28;20502;-78
2022/04/22 04:31:19;;;;;;;12.40;6.75;;;;;;;9.70;79.59;100844.91;5059815;28;20028;-83
2022/04/22 04:33:45;;;;;;;10.57;6.40;;;;;;;9.65;80.05;100840.91;5067442;28;20021;-83
2022/04/22 04:36:10;;;;;;;10.60;6.45;;;;;;;9.62;80.00;100840.41;5071298;28;20035;-87
2022/04/22 04:38:41;;;;;;;11.35;7.25;;;;;;;9.61;79.95;100838.72;5070865;28;20013;-80
2022/04/22 04:41:08;;;;;;;12.48;7.13;;;;;;;9.58;80.10;100833.72;5068739;28;20147;-85
2022/04/22 04:43:38;;;;;;;11.88;7.60;;;;;;;9.53;80.14;100842.31;5065786;28;20032;-82
2022/04/22 04:46:03;;;;;;;15.25;7.43;;;;;;;9.57;80.73;100849.00;5064021;28;20017;-80
2022/04/22 04:48:28;;;;;;;11.90;7.57;;;;;;;9.53;80.58;100842.31;5062149;28;20064;-82
2022/04/22 04:50:55;;;;;;;16.10;7.85;;;;;;;9.57;80.54;100845.47;5064472;28;20033;-81
2022/04/22 04:53:23;;;;;;;17.17;7.57;;;;;;;9.55;80.88;100848.31;5061665;28;20086;-82
2022/04/22 04:55:50;;;;;;;16.70;8.25;;;;;;;9.53;80.69;100857.56;5059407;28;20088;-81
2022/04/22 04:58:16;;;;;;;12.63;7.75;;;;;;;9.63;80.57;100850.97;5061163;28;20029;-82
2022/04/22 05:00:42;;;;;;;15.48;8.13;;;;;;;9.66;79.91;100855.16;5079028;28;20021;-80
2022/04/22 05:03:07;;;;;;;11.68;7.75;;;;;;;9.65;80.15;100848.13;5058719;28;20111;-81
2022/04/22 05:05:33;;;;;;;13.57;8.52;;;;;;;9.68;79.65;100850.44;5059767;28;20040;-80
2022/04/22 05:07:59;;;;;;;12.70;8.65;;;;;;;9.71;79.25;100844.72;5059636;28;20075;-78
2022/04/22 05:10:26;;;;;;;15.98;8.05;;;;;;;9.75;79.11;100846.06;5059009;28;20048;-81
2022/04/22 05:12:52;;;;;;;15.07;8.25;;;;;;;9.75;78.98;100840.69;5060558;28;20016;-77
2022/04/22 05:15:18;;;;;;;11.98;8.38;;;;;;;9.78;78.53;100837.63;5059232;28;20032;-82
2022/04/22 05:17:45;;;;;;;12.30;7.97;;;;;;;9.74;79.09;100833.66;5061265;28;20021;-80
2022/04/22 05:20:13;;;;;;;13.18;8.68;;;;;;;9.80;78.72;100837.47;5059196;28;20059;-81
2022/04/22 05:22:38;;;;;;;14.15;8.55;;;;;;;9.85;78.69;100838.59;5059595;28;20032;-82
2022/04/22 05:25:05;;;;;;;23.98;8.52;;;;;;;9.88;78.38;100842.78;5060049;28;20021;-81
2022/04/22 05:27:31;;;;;;;12.40;8.27;;;;;;;9.85;78.58;100841.28;5056114;28;20032;-80
2022/04/22 05:32:47;;;;;;;12.60;8.60;;;;;;;9.95;77.74;100850.97;5062951;28;20055;-81
2022/04/22 05:35:12;;;;;;;12.40;8.20;;;;;;;9.99;77.81;100846.94;5061499;28;20064;-79
2022/04/22 05:37:51;;;;;;;13.50;8.73;;;;;;;10.10;78.01;100839.28;5059927;28;20040;-80
2022/04/22 05:40:22;;;;;;;15.60;9.18;;;;;;;10.33;77.33;100850.06;5054781;28;20458;-82
2022/04/22 05:42:48;;;;;;;11.55;8.18;;;;;;;10.58;75.63;100847.16;5058338;28;20484;-79
2022/04/22 05:45:15;;;;;;;9.95;7.80;;;;;;;10.96;74.18;100849.84;5057525;28;20021;-78
2022/04/22 05:47:41;;;;;;;10.60;7.97;;;;;;;11.40;72.57;100854.38;5058698;28;20106;-80
2022/04/22 05:50:08;;;;;;;13.73;8.27;;;;;;;11.85;70.57;100844.38;5055074;28;20023;-80
2022/04/22 05:52:34;;;;;;;14.23;8.55;;;;;;;12.36;68.12;100851.56;5064866;28;20064;-82
2022/04/22 05:55:04;;;;;;;12.07;7.72;;;;;;;12.52;67.50;100860.22;5065890;28;20325;-78
2022/04/22 05:57:30;;;;;;;11.88;8.38;;;;;;;12.72;66.80;100856.88;5061643;28;20025;-82
2022/04/22 05:59:56;;;;;;;13.38;8.43;;;;;;;12.89;66.35;100847.44;5058871;28;20076;-79
2022/04/22 06:02:21;;;;;;;12.00;8.13;;;;;;;13.16;65.31;100853.84;5060055;28;20044;-77
2022/04/22 06:04:47;;;;;;;12.90;8.00;;;;;;;13.41;64.18;100852.56;5061912;28;20025;-81
2022/04/22 06:07:12;;;;;;;15.05;8.52;;;;;;;13.63;63.44;100854.09;5057353;28;20318;-78
2022/04/22 06:12:22;;;;;;;14.15;9.05;;;;;;;13.80;62.30;100850.03;5060336;28;20048;-81
2022/04/22 06:14:47;;;;;;;14.98;8.80;;;;;;;13.89;61.95;100847.13;5059704;28;20110;-80
2022/04/22 06:17:13;;;;;;;14.45;8.63;;;;;;;14.05;61.57;100850.28;5061030;28;20020;-81
2022/04/22 06:19:38;;;;;;;13.98;8.10;;;;;;;14.08;61.31;100843.63;5057671;28;20029;-79
2022/04/22 06:22:04;;;;;;;13.38;8.52;;;;;;;14.46;60.66;100834.94;5058685;28;20036;-80
2022/04/22 06:24:29;;;;;;;14.98;9.10;;;;;;;14.84;59.23;100842.47;5058921;28;20044;-81
2022/04/22 06:26:55;;;;;;;13.13;8.57;;;;;;;14.96;58.38;100840.78;5059185;28;20106;-78
2022/04/22 06:29:20;;;;;;;16.83;9.05;;;;;;;15.02;58.03;100839.94;5055296;28;20272;-80
2022/04/22 06:31:46;;;;;;;14.93;9.38;;;;;;;15.15;57.60;100839.91;5075184;28;20055;-82
2022/04/22 06:34:11;;;;;;;14.27;8.77;;;;;;;15.33;57.18;100828.38;5060695;28;20049;-81
2022/04/22 06:36:37;;;;;;;16.05;9.63;;;;;;;15.47;56.41;100828.34;5062877;28;20037;-79
2022/04/22 06:39:03;;;;;;;20.30;9.50;;;;;;;15.30;56.75;100817.97;5075474;28;20048;-79
2022/04/22 06:47:12;;;;;;;18.45;9.57;;;;;;;15.72;55.87;100832.03;5024466;28;20029;-79
2022/04/22 06:49:37;;;;;;;19.95;9.70;;;;;;;15.78;55.66;100820.28;5058252;28;20036;-79
2022/04/22 06:52:05;;;;;;;20.13;10.98;;;;;;;15.81;55.63;100824.47;5060924;28;20033;-79
2022/04/22 06:54:31;;;;;;;19.13;9.88;;;;;;;15.89;55.56;100826.09;5059283;28;20041;-83
2022/04/22 06:56:57;;;;;;;19.25;11.10;;;;;;;16.00;55.09;100828.09;5060261;28;20163;-80
2022/04/22 06:59:23;;;;;;;16.80;10.93;;;;;;;16.27;54.38;100831.47;5056427;28;20029;-77
2022/04/22 07:01:48;;;;;;;18.55;11.35;;;;;;;16.35;53.74;100828.50;5059198;28;20104;-79
2022/04/22 07:04:14;;;;;;;25.05;11.43;;;;;;;16.61;53.26;100832.03;5060022;28;20029;-81
2022/04/22 07:06:42;;;;;;;19.50;11.40;;;;;;;16.61;53.11;100829.34;5061391;28;20025;-81
2022/04/22 07:09:10;;;;;;;24.92;11.68;;;;;;;17.12;51.74;100828.25;5066138;28;20033;-81
2022/04/22 07:11:38;;;;;;;25.05;10.80;;;;;;;17.34;51.11;100834.06;5063977;28;20025;-79
2022/04/22 07:14:04;;;;;;;21.50;11.40;;;;;;;17.38;51.10;100829.84;5061258;28;20033;-80
2022/04/22 07:16:30;;;;;;;19.55;11.05;;;;;;;17.42;51.09;100828.31;5061721;28;20028;-79
2022/04/22 07:18:56;;;;;;;20.63;11.68;;;;;;;17.28;50.60;100835.81;5060935;28;20032;-82
2022/04/22 07:21:22;;;;;;;18.90;11.18;;;;;;;17.21;51.32;100829.63;5057979;28;20032;-79
2022/04/22 07:23:47;;;;;;;21.85;11.73;;;;;;;17.78;50.04;100822.00;5060354;28;20017;-81
2022/04/22 07:26:16;;;;;;;22.60;11.55;;;;;;;17.93;49.73;100815.34;5064549;28;20425;-81
2022/04/22 07:28:45;;;;;;;21.50;11.52;;;;;;;17.91;48.83;100820.22;5066155;28;20025;-81
2022/04/22 07:31:11;;;;;;;21.05;11.57;;;;;;;17.74;49.65;100822.69;5063119;28;20067;-78
2022/04/22 07:33:36;;;;;;;18.65;11.15;;;;;;;18.01;48.66;100827.81;5063824;28;20037;-79
2022/04/22 07:36:02;;;;;;;18.75;11.48;;;;;;;18.26;48.49;100822.19;5059372;28;20029;-80
2022/04/22 07:38:28;;;;;;;21.85;12.75;;;;;;;18.15;47.84;100821.94;5058985;28;20025;-80
2022/04/22 07:40:53;;;;;;;24.50;12.13;;;;;;;18.67;46.83;100825.94;5059497;28;20024;-81
2022/04/22 07:48:52;;;;;;;18.38;11.60;;;;;;;18.82;46.58;100818.97;5062852;28;20126;-81
2022/04/22 07:51:17;;;;;;;26.27;12.05;;;;;;;19.26;45.85;100829.50;5059997;28;20024;-79
2022/04/22 07:53:43;;;;;;;24.02;12.35;;;;;;;19.12;45.39;100830.84;5061223;28;20021;-79
2022/04/22 07:56:08;;;;;;;19.90;12.07;;;;;;;18.09;47.57;100827.47;5060906;28;20035;-79
2022/04/22 07:58:34;;;;;;;24.40;11.90;;;;;;;17.24;49.71;100823.72;5062242;28;20021;-80
2022/04/22 08:00:59;;;;;;;19.95;12.68;;;;;;;16.63;51.61;100819.91;5063147;28;20025;-77
2022/04/22 08:03:26;;;;;;;22.13;13.15;;;;;;;17.30;51.02;100816.56;5062695;28;20025;-81
2022/04/22 08:05:51;;;;;;;26.30;12.70;;;;;;;17.91;48.59;100814.75;5058651;28;20040;-80
2022/04/22 08:08:16;;;;;;;26.48;13.07;;;;;;;18.33;48.43;100822.94;5057932;28;20425;-82
2022/04/22 08:10:42;;;;;;;20.67;11.35;;;;;;;18.69;46.38;100823.81;5057378;28;20028;-82
2022/04/22 08:13:08;;;;;;;20.63;11.45;;;;;;;18.27;46.95;100823.84;5056219;28;20124;-83
2022/04/22 08:15:34;;;;;;;25.27;11.93;;;;;;;18.80;46.60;100817.53;5055325;28;20028;-83
2022/04/22 08:18:00;;;;;;;21.48;11.75;;;;;;;19.39;45.13;100810.13;5053313;28;20037;-83
2022/04/22 08:20:25;;;;;;;22.25;12.40;;;;;;;19.51;44.71;100819.13;5055077;28;20400;-83
2022/04/22 08:22:51;;;;;;;22.27;11.50;;;;;;;19.78;43.90;100815.03;5054276;28;20112;-83
2022/04/22 08:25:16;;;;;;;23.40;11.27;;;;;;;19.94;42.32;100808.78;5053472;28;20025;-82
2022/04/22 08:27:42;;;;;;;26.10;12.20;;;;;;;18.98;45.23;100822.06;5052963;28;20048;-83
2022/04/22 08:30:08;;;;;;;20.65;11.40;;;;;;;19.10;45.14;100820.16;5052758;28;20033;-82
2022/04/22 08:32:33;;;;;;;25.08;11.65;;;;;;;18.65;45.98;100818.81;5052255;28;20037;-80
2022/04/22 08:34:59;;;;;;;34.75;12.40;;;;;;;18.24;46.37;100803.34;5051953;28;20106;-78
2022/04/22 08:37:24;;;;;;;23.73;12.45;;;;;;;18.11;46.38;100798.94;5051649;28;20073;-81
2022/04/22 08:39:50;;;;;;;21.45;13.13;;;;;;;18.74;46.26;100791.22;5051543;28;20040;-78
2022/04/22 08:42:15;;;;;;;23.55;12.93;;;;;;;19.69;43.39;100814.56;5054062;28;20068;-79
2022/04/22 08:44:41;;;;;;;21.42;11.52;;;;;;;19.90;43.06;100802.97;5052320;28;20039;-78
2022/04/22 08:50:02;;;;;;;18.95;11.65;;;;;;;20.52;41.11;100787.63;5053321;28;20052;-76
2022/04/22 08:52:33;;;;;;;19.70;11.20;;;;;;;20.61;41.19;100792.44;5052028;28;20034;-79
2022/04/22 08:54:59;;;;;;;19.05;11.32;;;;;;;21.08;39.49;100793.94;5052616;28;20357;-80
2022/04/22 08:57:24;;;;;;;18.40;11.65;;;;;;;21.11;39.82;100779.75;5052893;28;20054;-80
2022/04/22 08:59:50;;;;;;;21.00;11.93;;;;;;;21.05;39.50;100776.13;5052962;28;20114;-81
2022/04/22 09:02:17;;;;;;;19.77;11.68;;;;;;;21.09;39.54;100779.19;5053794;28;20065;-82
2022/04/22 09:04:43;;;;;;;26.25;11.88;;;;;;;20.65;40.48;100781.84;5052280;28;20427;-81
2022/04/22 09:07:12;;;;;;;18.55;11.32;;;;;;;20.49;40.07;100766.25;5051949;28;20112;-82
2022/04/22 09:09:38;;;;;;;15.98;11.10;;;;;;;20.31;40.52;100765.44;5054260;28;20032;-83
2022/04/22 09:12:12;;;;;;;23.80;10.97;;;;;;;20.14;40.70;100761.84;5054012;28;20048;-81
2022/04/22 09:14:47;;;;;;;21.73;10.93;;;;;;;19.95;40.76;100762.09;5055444;28;20468;-80
2022/04/22 09:17:33;;;;;;;24.15;11.50;;;;;;;20.00;41.15;100752.34;5054352;28;20556;-84
2022/04/22 09:19:59;;;;;;;20.33;10.90;;;;;;;20.46;40.11;100750.34;5056482;28;20507;-84
2022/04/22 09:22:26;;;;;;;17.08;10.63;;;;;;;20.41;40.28;100748.38;5053421;28;20033;-84
2022/04/22 09:24:53;;;;;;;20.02;11.25;;;;;;;20.51;39.27;100744.94;5053518;28;20337;-80
2022/04/22 09:27:19;;;;;;;24.48;10.27;;;;;;;20.37;39.60;100748.03;5054226;28;20134;-82
2022/04/22 09:29:53;;;;;;;22.17;10.98;;;;;;;20.85;38.58;100734.81;5052041;28;20025;-81
2022/04/22 09:32:26;;;;;;;20.15;11.55;;;;;;;20.50;38.91;100741.38;5051977;28;20059;-82
2022/04/22 09:34:52;;;;;;;20.13;11.90;;;;;;;19.90;41.08;100736.59;5051030;28;20067;-78
2022/04/22 09:42:55;;;;;;;23.27;11.43;;;;;;;19.71;41.81;100733.25;5051734;28;20147;-81
2022/04/22 09:45:21;;;;;;;19.70;11.80;;;;;;;19.95;41.03;100740.22;5051058;28;20464;-81
2022/04/22 09:47:59;;;;;;;21.25;11.23;;;;;;;19.74;41.12;100719.94;5051629;28;20023;-82
2022/04/22 09:50:54;;;;;;;28.38;10.98;;;;;;;19.66;42.29;100724.94;5051291;28;20029;-81
2022/04/22 09:53:33;;;;;;;29.73;11.02;;;;;;;19.98;41.78;100711.59;5050401;28;20040;-83
2022/04/22 09:56:05;;;;;;;27.40;12.20;;;;;;;20.58;39.58;100715.56;5051997;28;20487;-79
2022/04/22 09:58:30;;;;;;;17.55;10.82;;;;;;;20.23;40.56;100724.84;5051664;28;20107;-80
2022/04/22 10:01:00;;;;;;;18.40;10.45;;;;;;;20.27;40.61;100723.25;5051451;28;20063;-82
2022/04/22 10:03:31;;;;;;;18.55;10.82;;;;;;;20.18;40.46;100713.84;5051057;28;20118;-80
2022/04/22 10:05:56;;;;;;;22.15;10.88;;;;;;;19.88;40.56;100709.53;5052783;28;20075;-78
2022/04/22 10:08:23;;;;;;;20.80;10.77;;;;;;;20.30;39.71;100713.75;5053824;28;20405;-81
2022/04/22 10:10:51;;;;;;;21.35;10.85;;;;;;;20.38;40.02;100705.16;5053839;28;20075;-80
2022/04/22 10:13:18;;;;;;;16.85;9.77;;;;;;;21.03;39.10;100709.88;5055982;28;20405;-84
2022/04/22 10:15:45;;;;;;;22.55;9.55;;;;;;;21.35;37.72;100705.59;5057266;28;20025;-80
2022/04/22 10:18:12;;;;;;;21.57;10.10;;;;;;;21.67;37.34;100697.47;5055485;28;20154;-79
2022/04/22 10:20:37;;;;;;;18.92;9.68;;;;;;;21.94;36.37;100711.16;5055182;28;20430;-82
2022/04/22 10:23:03;;;;;;;18.70;9.57;;;;;;;21.26;36.94;100710.69;5054860;28;20087;-82
2022/04/22 10:25:29;;;;;;;18.95;11.13;;;;;;;21.05;37.22;100707.72;5055028;28;20346;-79
2022/04/22 10:27:57;;;;;;;18.42;9.73;;;;;;;20.86;38.21;100697.34;5055769;28;20027;-80
2022/04/22 10:30:22;;;;;;;23.15;10.23;;;;;;;20.76;38.41;100690.66;5055168;28;20032;-82
2022/04/22 10:32:48;;;;;;;19.65;10.50;;;;;;;20.77;38.45;100706.00;5053923;28;20029;-78
2022/04/22 10:35:14;;;;;;;19.80;10.15;;;;;;;21.01;37.61;100703.00;5053422;28;20041;-83
2022/04/22 10:37:41;;;;;;;17.65;10.32;;;;;;;20.50;38.12;100691.34;5055028;28;20387;-79
2022/04/22 10:40:18;;;;;;;19.38;9.52;;;;;;;20.53;39.40;100701.78;5055284;28;20029;-78
2022/04/22 10:42:43;;;;;;;25.87;10.00;;;;;;;20.57;38.94;100687.41;5054968;28;20523;-83
2022/04/22 10:47:55;;;;;;;16.92;8.98;;;;;;;20.91;37.62;100686.50;5055355;28;20252;-81
2022/04/22 10:50:29;;;;;;;21.05;9.93;;;;;;;20.98;36.86;100684.38;5056060;28;20108;-80
2022/04/22 10:53:03;;;;;;;20.55;10.00;;;;;;;20.87;37.54;100688.06;5054669;28;20101;-83
2022/04/22 10:55:40;;;;;;;17.38;9.73;;;;;;;20.66;39.19;100685.06;5037253;28;20031;-79
2022/04/22 10:58:12;;;;;;;23.20;10.43;;;;;;;20.31;40.20;100680.72;5054826;28;20025;-80
2022/04/22 11:00:39;;;;;;;24.45;10.15;;;;;;;20.17;40.88;100673.94;5055575;28;20025;-81
2022/04/22 11:03:10;;;;;;;14.35;9.52;;;;;;;20.47;41.73;100675.47;5055843;28;20024;-81
2022/04/22 11:05:37;;;;;;;16.17;9.60;;;;;;;20.88;40.67;100686.97;5055672;28;20025;-79
2022/04/22 11:08:06;;;;;;;21.40;9.40;;;;;;;20.53;39.59;100668.97;5053810;28;20020;-81
2022/04/22 11:10:44;;;;;;;21.80;9.68;;;;;;;20.95;40.43;100661.06;5053273;28;20441;-82
2022/04/22 11:13:15;;;;;;;;;;;;;;;21.36;38.76;100677.97;5054750;28;20500;-79
2022/04/22 11:15:44;;;;;;;16.20;10.18;;;;;;;21.47;39.64;100665.25;5053057;28;19923;-80
2022/04/22 11:18:10;;;;;;;16.23;9.27;;;;;;;21.48;39.01;100675.09;5054011;28;20032;-81
2022/04/22 11:20:42;;;;;;;19.77;9.00;;;;;;;21.27;38.81;100680.34;5054195;28;20028;-82
2022/04/22 11:23:11;;;;;;;22.05;9.65;;;;;;;20.51;40.87;100666.53;5055041;28;20503;-84
2022/04/22 11:25:38;;;;;;;20.77;9.88;;;;;;;20.81;40.48;100655.16;5069732;28;20025;-82
2022/04/22 11:28:04;;;;;;;24.17;9.23;;;;;;;20.72;40.94;100661.31;5054123;28;20481;-82
2022/04/22 11:30:32;;;;;;;13.63;8.68;;;;;;;21.09;37.38;100649.72;5054006;28;20344;-82
2022/04/22 11:33:24;;;;;;;15.25;8.20;;;;;;;20.93;38.53;100657.78;5053219;28;20029;-82
2022/04/22 11:35:56;;;;;;;22.30;9.23;;;;;;;20.31;39.92;100644.34;5052637;28;20048;-84
2022/04/22 11:38:21;;;;;;;16.75;9.40;;;;;;;20.56;40.37;100652.94;5062464;28;20043;-83
2022/04/22 11:40:49;;;;;;;20.65;9.48;;;;;;;20.95;39.35;100652.06;5064531;28;20029;-81
2022/04/22 11:43:15;;;;;;;20.45;8.60;;;;;;;20.88;39.03;100645.94;5063804;28;20025;-84
2022/04/22 11:45:43;;;;;;;15.88;8.80;;;;;;;21.10;39.33;100641.28;5060543;28;20052;-81
2022/04/22 11:48:09;;;;;;;;;;;;;;;21.22;38.21;100649.34;5062331;28;20063;-83
2022/04/22 11:50:39;;;;;;;15.07;8.32;;;;;;;20.42;38.75;100646.16;5059127;28;19908;-76
2022/04/22 11:53:07;;;;;;;20.40;9.23;;;;;;;20.01;39.74;100653.75;5057370;28;20388;-81
2022/04/22 11:55:33;;;;;;;14.85;9.20;;;;;;;20.15;40.44;100648.78;5055877;28;20036;-81
2022/04/22 11:57:59;;;;;;;18.95;9.52;;;;;;;20.29;40.37;100647.31;5055324;28;20059;-81
2022/04/22 12:05:54;;;;;;;14.60;7.75;;;;;;;19.51;41.21;100644.44;5053862;28;20044;-80
2022/04/22 12:08:20;;;;;;;18.77;8.43;;;;;;;19.95;40.36;100647.34;5055051;28;20147;-82
2022/04/22 12:10:46;;;;;;;12.35;7.07;;;;;;;19.84;40.67;100640.09;5054789;28;20442;-82
2022/04/22 12:13:15;;;;;;;21.40;8.10;;;;;;;19.64;40.13;100639.72;5053245;28;20536;-82